createdAt,value
2022-10-17T00:01:15.151Z,99.90
2022-10-17T00:03:44.667Z,99.90
2022-10-17T00:06:14.850Z,99.90
2022-10-17T00:08:43.080Z,99.90
2022-10-17T00:11:16.769Z,99.90
2022-10-17T00:13:44.418Z,99.90
2022-10-17T00:16:11.907Z,99.90
2022-10-17T00:18:39.151Z,99.90
2022-10-17T00:21:06.608Z,99.90
2022-10-17T00:23:35.807Z,99.90
2022-10-17T00:26:05.636Z,99.90
2022-10-17T00:28:35.115Z,99.90
2022-10-17T00:31:06.339Z,99.90
2022-10-17T00:33:35.558Z,99.90
2022-10-17T00:36:07.325Z,99.90
2022-10-17T00:38:37.710Z,99.90
2022-10-17T00:41:05.849Z,99.90
2022-10-17T00:44:02.852Z,99.90
2022-10-17T00:46:36.192Z,99.90
2022-10-17T00:49:08.426Z,99.90
2022-10-17T00:51:46.471Z,99.90
2022-10-17T00:54:19.187Z,99.90
2022-10-17T00:56:48.290Z,99.90
2022-10-17T00:59:17.687Z,99.90
2022-10-17T01:01:52.552Z,99.90
2022-10-17T01:04:20.171Z,99.90
2022-10-17T01:06:47.427Z,99.90
2022-10-17T01:09:14.489Z,99.90
2022-10-17T01:12:04.355Z,99.90
2022-10-17T01:14:55.396Z,99.90
2022-10-17T01:17:55.045Z,99.90
2022-10-17T01:20:55.519Z,99.90
2022-10-17T01:23:49.375Z,99.90
2022-10-17T01:26:40.088Z,99.90
2022-10-17T01:29:26.437Z,99.90
2022-10-17T01:31:58.565Z,99.90
2022-10-17T01:34:35.255Z,99.90
2022-10-17T01:37:21.377Z,99.90
2022-10-17T01:39:55.862Z,99.90
2022-10-17T01:43:17.007Z,99.90
2022-10-17T01:45:54.942Z,99.90
2022-10-17T01:48:25.429Z,99.90
2022-10-17T01:51:01.969Z,99.90
2022-10-17T01:53:33.927Z,99.90
2022-10-17T01:56:05.264Z,99.90
2022-10-17T01:58:37.746Z,99.90
2022-10-17T02:01:08.513Z,99.90
2022-10-17T02:03:36.137Z,99.90
2022-10-17T02:06:03.617Z,99.90
2022-10-17T02:08:46.173Z,99.90
2022-10-17T02:11:24.738Z,99.90
2022-10-17T02:14:18.507Z,99.90
2022-10-17T02:16:48.528Z,99.90
2022-10-17T02:19:46.215Z,99.90
2022-10-17T02:22:39.662Z,99.90
2022-10-17T02:25:18.171Z,99.90
2022-10-17T02:28:17.679Z,99.90
2022-10-17T02:30:56.254Z,99.90
2022-10-17T02:33:56.505Z,99.90
2022-10-17T02:36:28.320Z,99.90
2022-10-17T02:38:56.464Z,99.90
2022-10-17T02:41:27.054Z,99.90
2022-10-17T02:43:57.628Z,99.90
2022-10-17T02:46:28.926Z,99.90
2022-10-17T02:49:16.209Z,99.90
2022-10-17T02:51:59.312Z,99.90
2022-10-17T02:54:56.958Z,99.90
2022-10-17T02:57:51.180Z,99.90
2022-10-17T03:03:30.818Z,99.90
2022-10-17T03:06:00.493Z,99.90
2022-10-17T03:08:27.913Z,99.90
2022-10-17T03:10:55.328Z,99.90
2022-10-17T03:13:24.875Z,99.90
2022-10-17T03:15:52.222Z,99.90
2022-10-17T03:18:19.330Z,99.90
2022-10-17T03:20:46.752Z,99.90
2022-10-17T03:23:16.431Z,99.90
2022-10-17T03:25:43.864Z,99.90
2022-10-17T03:28:11.854Z,99.90
2022-10-17T03:30:39.370Z,99.90
2022-10-17T03:33:06.668Z,99.90
2022-10-17T03:35:38.920Z,99.90
2022-10-17T03:38:06.138Z,99.90
2022-10-17T03:40:33.446Z,99.90
2022-10-17T03:43:00.560Z,99.90
2022-10-17T03:45:27.894Z,99.90
2022-10-17T03:47:58.339Z,99.90
2022-10-17T03:50:25.978Z,99.90
2022-10-17T03:52:53.127Z,99.90
2022-10-17T03:55:20.474Z,99.90
2022-10-17T03:57:47.656Z,99.90
2022-10-17T04:00:15.318Z,99.90
2022-10-17T04:02:42.724Z,99.90
2022-10-17T04:05:10.131Z,99.90
2022-10-17T04:07:37.318Z,99.90
2022-10-17T04:10:05.699Z,99.90
2022-10-17T04:12:32.944Z,99.90
2022-10-17T04:15:02.486Z,99.90
2022-10-17T04:17:35.752Z,99.90
2022-10-17T04:20:06.280Z,99.90
2022-10-17T04:22:35.838Z,99.90
2022-10-17T04:25:03.146Z,99.90
2022-10-17T04:27:30.350Z,99.90
2022-10-17T04:29:57.704Z,99.90
2022-10-17T04:32:24.798Z,99.90
2022-10-17T04:34:52.245Z,99.90
2022-10-17T04:37:19.850Z,99.90
2022-10-17T04:39:47.156Z,99.90
2022-10-17T04:42:16.585Z,99.90
2022-10-17T04:44:43.866Z,99.90
2022-10-17T04:47:11.141Z,99.90
2022-10-17T04:49:38.911Z,99.90
2022-10-17T04:52:06.026Z,99.90
2022-10-17T04:54:33.212Z,99.90
2022-10-17T04:57:05.054Z,99.90
2022-10-17T04:59:32.650Z,99.90
2022-10-17T05:02:02.156Z,99.90
2022-10-17T05:04:31.606Z,99.90
2022-10-17T05:07:01.118Z,99.90
2022-10-17T05:09:28.788Z,99.90
2022-10-17T05:11:55.987Z,99.90
2022-10-17T05:14:23.364Z,99.90
2022-10-17T05:16:50.457Z,99.90
2022-10-17T05:19:18.064Z,99.90
2022-10-17T05:21:47.552Z,99.90
2022-10-17T05:24:15.405Z,99.90
2022-10-17T05:26:42.636Z,99.90
2022-10-17T05:29:10.280Z,99.90
2022-10-17T05:31:37.687Z,99.90
2022-10-17T05:34:07.066Z,99.90
2022-10-17T05:36:41.096Z,99.90
2022-10-17T05:39:12.618Z,99.90
2022-10-17T05:41:39.673Z,99.90
2022-10-17T05:44:09.322Z,99.90
2022-10-17T05:46:36.558Z,99.90
2022-10-17T05:49:14.659Z,99.90
2022-10-17T05:51:53.394Z,99.90
2022-10-17T05:54:20.600Z,99.90
2022-10-17T05:56:55.298Z,99.90
2022-10-17T05:59:24.392Z,99.90
2022-10-17T06:01:54.702Z,99.90
2022-10-17T06:04:24.760Z,99.90
2022-10-17T06:06:52.120Z,99.90
2022-10-17T06:09:22.331Z,99.90
2022-10-17T06:11:51.811Z,99.90
2022-10-17T06:14:21.398Z,99.90
2022-10-17T06:16:50.894Z,97.60
2022-10-17T06:19:18.550Z,95.40
2022-10-17T06:21:45.872Z,94.50
2022-10-17T06:24:13.350Z,94.00
2022-10-17T06:26:40.487Z,93.60
2022-10-17T06:29:08.517Z,93.30
2022-10-17T06:31:38.490Z,92.00
2022-10-17T06:34:05.940Z,90.60
2022-10-17T06:36:33.168Z,88.70
2022-10-17T06:39:00.519Z,85.90
2022-10-17T06:41:27.773Z,83.10
2022-10-17T06:43:55.262Z,80.60
2022-10-17T06:46:22.255Z,76.30
2022-10-17T06:48:52.163Z,73.50
2022-10-17T06:51:19.389Z,70.20
2022-10-17T06:53:46.865Z,66.90
2022-10-17T06:56:14.125Z,64.20
2022-10-17T06:58:41.555Z,61.60
2022-10-17T07:01:11.722Z,59.80
2022-10-17T07:03:40.346Z,57.50
2022-10-17T07:06:08.111Z,55.70
2022-10-17T07:08:35.501Z,54.70
2022-10-17T07:11:13.671Z,53.80
2022-10-17T07:13:41.143Z,53.40
2022-10-17T07:16:11.787Z,52.50
2022-10-17T07:18:42.271Z,51.50
2022-10-17T07:21:11.619Z,50.40
2022-10-17T07:23:38.810Z,49.80
2022-10-17T07:26:13.226Z,49.70
2022-10-17T07:28:43.108Z,49.70
2022-10-17T07:31:16.595Z,49.00
2022-10-17T07:36:21.329Z,47.20
2022-10-17T07:38:51.000Z,46.90
2022-10-17T07:41:20.922Z,46.40
2022-10-17T07:43:50.194Z,45.60
2022-10-17T07:46:19.623Z,45.10
2022-10-17T07:48:46.913Z,44.90
2022-10-17T07:51:14.173Z,44.60
2022-10-17T07:53:46.434Z,44.50
2022-10-17T07:56:16.333Z,44.70
2022-10-17T07:58:46.361Z,44.30
2022-10-17T08:01:15.322Z,44.00
2022-10-17T08:03:49.159Z,43.80
2022-10-17T08:06:16.634Z,43.40
2022-10-17T08:08:46.452Z,43.60
2022-10-17T08:11:15.121Z,43.70
2022-10-17T08:13:45.207Z,45.00
2022-10-17T08:16:13.635Z,44.70
2022-10-17T08:18:42.784Z,46.40
2022-10-17T08:21:13.266Z,47.80
2022-10-17T08:23:43.921Z,47.60
2022-10-17T08:26:12.202Z,49.90
2022-10-17T08:28:40.513Z,50.10
2022-10-17T08:31:10.420Z,49.50
2022-10-17T08:33:38.219Z,50.10
2022-10-17T08:36:06.774Z,50.60
2022-10-17T08:38:36.357Z,49.90
2022-10-17T08:41:11.989Z,47.80
2022-10-17T08:44:14.173Z,47.90
2022-10-17T08:46:44.891Z,48.00
2022-10-17T08:49:46.991Z,48.20
2022-10-17T08:52:28.533Z,49.40
2022-10-17T08:54:56.089Z,49.50
2022-10-17T08:57:26.104Z,51.10
2022-10-17T08:59:56.013Z,50.10
2022-10-17T09:02:37.849Z,49.10
2022-10-17T09:05:33.301Z,48.80
2022-10-17T09:08:16.700Z,47.90
2022-10-17T09:10:49.906Z,47.10
2022-10-17T09:13:45.279Z,46.90
2022-10-17T09:16:35.093Z,46.90
2022-10-17T09:19:31.725Z,46.20
2022-10-17T09:22:04.376Z,45.70
2022-10-17T09:24:50.465Z,46.10
2022-10-17T09:27:43.132Z,47.10
2022-10-17T09:30:44.056Z,47.00
2022-10-17T09:33:23.151Z,48.50
2022-10-17T09:36:00.289Z,49.40
2022-10-17T09:38:38.166Z,49.70
2022-10-17T09:41:39.157Z,50.00
2022-10-17T09:44:18.108Z,51.10
2022-10-17T09:47:04.225Z,51.50
2022-10-17T09:49:50.451Z,52.40
2022-10-17T09:52:37.856Z,53.40
2022-10-17T09:55:16.757Z,52.50
2022-10-17T09:57:52.538Z,52.20
2022-10-17T10:00:33.923Z,52.10
2022-10-17T10:03:24.801Z,51.50
2022-10-17T10:06:05.656Z,50.70
2022-10-17T10:08:55.452Z,51.80
2022-10-17T10:11:44.090Z,53.50
2022-10-17T10:14:22.684Z,56.10
2022-10-17T10:16:52.380Z,56.10
2022-10-17T10:19:30.266Z,55.70
2022-10-17T10:22:03.944Z,55.90
2022-10-17T10:24:33.361Z,56.40
2022-10-17T10:27:05.037Z,56.60
2022-10-17T10:29:52.340Z,56.70
2022-10-17T10:32:22.468Z,56.00
2022-10-17T10:34:58.720Z,55.90
2022-10-17T10:37:33.962Z,55.80
2022-10-17T10:40:06.718Z,56.60
2022-10-17T10:42:40.388Z,57.20
2022-10-17T10:45:29.220Z,56.90
2022-10-17T10:48:17.786Z,57.00
2022-10-17T10:51:07.997Z,56.10
2022-10-17T10:53:44.520Z,56.10
2022-10-17T10:56:29.841Z,56.80
2022-10-17T10:59:18.823Z,56.50
2022-10-17T11:01:49.170Z,55.60
2022-10-17T11:04:25.500Z,55.60
2022-10-17T11:07:06.180Z,55.70
2022-10-17T11:09:52.120Z,56.10
2022-10-17T11:12:19.068Z,56.60
2022-10-17T11:15:14.114Z,56.30
2022-10-17T11:18:02.186Z,57.20
2022-10-17T11:21:03.312Z,59.30
2022-10-17T11:23:38.459Z,62.20
2022-10-17T11:26:16.631Z,64.20
2022-10-17T11:28:46.613Z,66.00
2022-10-17T11:31:15.812Z,67.40
2022-10-17T11:33:42.751Z,68.70
2022-10-17T11:36:11.206Z,68.90
2022-10-17T11:38:52.601Z,69.60
2022-10-17T11:41:37.994Z,69.90
2022-10-17T11:44:34.069Z,71.30
2022-10-17T11:47:39.458Z,72.00
2022-10-17T11:53:26.020Z,72.50
2022-10-17T11:55:54.568Z,72.90
2022-10-17T11:58:39.090Z,74.00
2022-10-17T12:01:21.365Z,74.40
2022-10-17T12:04:31.876Z,74.30
2022-10-17T12:07:32.359Z,75.00
2022-10-17T12:10:18.590Z,75.30
2022-10-17T12:12:45.878Z,75.70
2022-10-17T12:15:13.063Z,75.40
2022-10-17T12:18:05.720Z,75.80
2022-10-17T12:20:35.368Z,76.00
2022-10-17T12:23:11.901Z,76.80
2022-10-17T12:25:55.967Z,77.30
2022-10-17T12:28:33.779Z,76.50
2022-10-17T12:31:07.300Z,76.40
2022-10-17T12:33:35.925Z,76.10
2022-10-17T12:36:19.257Z,76.20
2022-10-17T12:38:51.882Z,75.80
2022-10-17T12:41:37.751Z,75.30
2022-10-17T12:44:14.458Z,75.50
2022-10-17T12:46:48.349Z,75.70
2022-10-17T12:50:04.554Z,75.60
2022-10-17T12:52:31.894Z,75.70
2022-10-17T12:55:14.574Z,75.70
2022-10-17T12:58:03.857Z,76.10
2022-10-17T13:03:45.469Z,76.50
2022-10-17T13:06:21.763Z,76.20
2022-10-17T13:09:03.320Z,76.80
2022-10-17T13:11:35.102Z,77.50
2022-10-17T13:14:12.286Z,77.00
2022-10-17T13:16:50.508Z,77.20
2022-10-17T13:19:23.014Z,76.00
2022-10-17T13:21:55.134Z,76.20
2022-10-17T13:24:30.169Z,76.20
2022-10-17T13:26:57.545Z,76.20
2022-10-17T13:29:25.793Z,76.40
2022-10-17T13:31:59.411Z,76.50
2022-10-17T13:34:27.690Z,76.90
2022-10-17T13:37:01.605Z,77.20
2022-10-17T13:39:52.316Z,77.40
2022-10-17T13:42:37.011Z,78.20
2022-10-17T13:45:12.627Z,78.70
2022-10-17T13:47:40.235Z,79.10
2022-10-17T13:50:26.428Z,79.30
2022-10-17T13:53:18.102Z,79.80
2022-10-17T13:56:09.443Z,79.70
2022-10-17T13:58:43.695Z,79.80
2022-10-17T14:01:13.377Z,80.30
2022-10-17T14:03:48.973Z,80.30
2022-10-17T14:06:23.888Z,80.70
2022-10-17T14:09:05.097Z,81.00
2022-10-17T14:11:42.505Z,81.20
2022-10-17T14:14:19.413Z,81.20
2022-10-17T14:16:48.137Z,81.80
2022-10-17T14:19:37.790Z,82.00
2022-10-17T14:22:22.074Z,82.40
2022-10-17T14:24:50.451Z,82.90
2022-10-17T14:27:33.449Z,82.90
2022-10-17T14:30:03.214Z,83.00
2022-10-17T14:32:36.315Z,83.60
2022-10-17T14:35:37.015Z,84.00
2022-10-17T14:38:03.197Z,84.50
2022-10-17T14:40:32.435Z,85.10
2022-10-17T14:43:04.943Z,85.50
2022-10-17T14:45:38.103Z,86.10
2022-10-17T14:48:21.559Z,86.30
2022-10-17T14:51:08.261Z,87.20
2022-10-17T14:53:36.473Z,87.60
2022-10-17T14:56:22.483Z,87.80
2022-10-17T14:58:49.870Z,88.10
2022-10-17T15:01:16.869Z,88.60
2022-10-17T15:03:44.583Z,88.60
2022-10-17T15:06:23.410Z,89.40
2022-10-17T15:08:50.970Z,89.60
2022-10-17T15:11:18.378Z,90.00
2022-10-17T15:13:48.075Z,90.30
2022-10-17T15:16:19.813Z,90.40
2022-10-17T15:18:48.146Z,90.70
2022-10-17T15:21:26.278Z,91.00
2022-10-17T15:24:06.789Z,91.40
2022-10-17T15:26:34.845Z,91.70
2022-10-17T15:29:02.444Z,91.90
2022-10-17T15:31:32.299Z,92.20
2022-10-17T15:33:59.791Z,92.40
2022-10-17T15:36:30.915Z,92.70
2022-10-17T15:39:00.796Z,93.10
2022-10-17T15:41:29.908Z,93.40
2022-10-17T15:43:59.123Z,93.70
2022-10-17T15:46:32.719Z,94.10
2022-10-17T15:49:05.436Z,94.40
2022-10-17T15:51:32.864Z,94.70
2022-10-17T15:54:00.264Z,95.10
2022-10-17T15:56:30.900Z,95.50
2022-10-17T15:58:58.494Z,95.80
2022-10-17T16:01:29.696Z,96.00
2022-10-17T16:03:57.341Z,96.40
2022-10-17T16:06:25.188Z,96.60
2022-10-17T16:08:53.293Z,97.00
2022-10-17T16:11:29.004Z,97.30
2022-10-17T16:14:00.332Z,97.60
2022-10-17T16:16:28.365Z,97.90
2022-10-17T16:18:55.821Z,98.20
2022-10-17T16:21:27.135Z,98.50
2022-10-17T16:23:57.696Z,98.80
2022-10-17T16:26:25.355Z,99.10
2022-10-17T16:28:52.885Z,99.30
2022-10-17T16:31:25.777Z,99.50
2022-10-17T16:33:54.200Z,99.70
2022-10-17T16:36:24.248Z,99.90
2022-10-17T16:38:52.017Z,99.90
2022-10-17T16:41:26.797Z,99.90
2022-10-17T16:43:55.881Z,99.90
2022-10-17T16:46:24.188Z,99.90
2022-10-17T16:48:52.170Z,99.90
2022-10-17T16:51:20.250Z,99.90
2022-10-17T16:53:52.718Z,99.90
2022-10-17T16:56:22.330Z,99.90
2022-10-17T16:58:50.686Z,99.90
2022-10-17T17:01:23.741Z,99.90
2022-10-17T17:03:52.740Z,99.90
2022-10-17T17:06:26.258Z,99.90
2022-10-17T17:08:57.096Z,99.90
2022-10-17T17:11:26.192Z,99.90
2022-10-17T17:13:56.876Z,99.90
2022-10-17T17:16:26.514Z,99.90
2022-10-17T17:18:55.868Z,99.90
2022-10-17T17:21:23.792Z,99.90
2022-10-17T17:23:51.352Z,99.90
2022-10-17T17:26:22.266Z,99.90
2022-10-17T17:28:50.208Z,99.90
2022-10-17T17:31:22.732Z,99.90
2022-10-17T17:33:52.010Z,99.90
2022-10-17T17:36:24.952Z,99.90
2022-10-17T17:38:55.938Z,99.90
2022-10-17T17:41:23.599Z,99.90
2022-10-17T17:43:51.893Z,99.90
2022-10-17T17:46:21.302Z,99.90
2022-10-17T17:48:49.878Z,99.90
2022-10-17T17:51:20.682Z,99.90
2022-10-17T17:53:48.939Z,99.90
2022-10-17T17:56:19.645Z,99.90
2022-10-17T17:58:48.558Z,99.90
2022-10-17T18:01:20.420Z,99.90
2022-10-17T18:03:49.864Z,99.90
2022-10-17T18:06:18.900Z,99.90
2022-10-17T18:08:49.543Z,99.90
2022-10-17T18:11:21.977Z,99.90
2022-10-17T18:14:01.011Z,99.90
2022-10-17T18:16:29.869Z,99.90
2022-10-17T18:19:01.479Z,99.90
2022-10-17T18:21:31.920Z,99.90
2022-10-17T18:23:59.330Z,99.90
2022-10-17T18:26:26.839Z,99.90
2022-10-17T18:28:54.669Z,99.90
2022-10-17T18:31:23.576Z,99.90
2022-10-17T18:33:55.283Z,99.90
2022-10-17T18:36:23.462Z,99.90
2022-10-17T18:38:50.844Z,99.90
2022-10-17T18:41:20.518Z,99.90
2022-10-17T18:43:49.456Z,99.90
2022-10-17T18:46:28.309Z,99.90
2022-10-17T18:48:58.276Z,99.90
2022-10-17T18:51:26.068Z,99.90
2022-10-17T18:53:59.713Z,99.90
2022-10-17T18:56:27.202Z,99.90
2022-10-17T18:58:55.178Z,99.90
2022-10-17T19:01:25.776Z,99.90
2022-10-17T19:03:56.024Z,99.90
2022-10-17T19:06:27.601Z,99.90
2022-10-17T19:08:55.189Z,99.90
2022-10-17T19:11:25.613Z,99.90
2022-10-17T19:13:53.608Z,99.90
2022-10-17T19:16:23.249Z,99.90
2022-10-17T19:18:54.541Z,99.90
2022-10-17T19:21:22.537Z,99.90
2022-10-17T19:23:58.404Z,99.90
2022-10-17T19:26:28.487Z,99.90
2022-10-17T19:28:56.279Z,99.90
2022-10-17T19:31:27.563Z,99.90
2022-10-17T19:33:56.501Z,99.90
2022-10-17T19:36:30.421Z,99.90
2022-10-17T19:39:05.073Z,99.90
2022-10-17T19:41:32.773Z,99.90
2022-10-17T19:44:00.519Z,99.90
2022-10-17T19:46:29.601Z,99.90
2022-10-17T19:48:57.432Z,99.90
2022-10-17T19:51:26.196Z,99.90
2022-10-17T19:53:56.038Z,99.90
2022-10-17T19:56:25.082Z,99.90
2022-10-17T19:58:58.134Z,99.90
2022-10-17T20:01:29.340Z,99.90
2022-10-17T20:03:57.110Z,99.90
2022-10-17T20:06:24.536Z,99.90
2022-10-17T20:08:52.357Z,99.90
2022-10-17T20:11:22.668Z,99.90
2022-10-17T20:13:50.818Z,99.90
2022-10-17T20:16:25.888Z,99.90
2022-10-17T20:18:55.677Z,99.90
2022-10-17T20:21:25.731Z,99.90
2022-10-17T20:23:53.937Z,99.90
2022-10-17T20:26:37.527Z,99.90
2022-10-17T20:29:14.304Z,99.90
2022-10-17T20:31:44.202Z,99.90
2022-10-17T20:34:14.244Z,99.90
2022-10-17T20:36:41.798Z,99.90
2022-10-17T20:39:10.947Z,99.90
2022-10-17T20:41:38.245Z,99.90
2022-10-17T20:44:10.980Z,99.90
2022-10-17T20:46:44.681Z,99.90
2022-10-17T20:49:18.536Z,99.90
2022-10-17T20:51:46.825Z,99.90
2022-10-17T20:54:14.340Z,99.90
2022-10-17T20:56:41.732Z,99.90
2022-10-17T20:59:14.411Z,99.90
2022-10-17T21:01:42.239Z,99.90
2022-10-17T21:04:44.918Z,99.90
2022-10-17T21:07:02.005Z,99.90
2022-10-17T21:09:29.718Z,99.90
2022-10-17T21:11:57.025Z,99.90
2022-10-17T21:14:25.457Z,99.90
2022-10-17T21:16:54.854Z,99.90
2022-10-17T21:19:22.311Z,99.90
2022-10-17T21:21:49.988Z,99.90
2022-10-17T21:24:19.944Z,99.90
2022-10-17T21:26:48.835Z,99.90
2022-10-17T21:29:18.427Z,99.90
2022-10-17T21:31:45.640Z,99.90
2022-10-17T21:34:18.293Z,99.90
2022-10-17T21:36:48.570Z,99.90
2022-10-17T21:39:16.900Z,99.90
2022-10-17T21:41:44.854Z,99.90
2022-10-17T21:44:14.989Z,99.90
2022-10-17T21:46:42.982Z,99.90
2022-10-17T21:49:12.640Z,99.90
2022-10-17T21:51:40.385Z,99.90
2022-10-17T21:54:08.112Z,99.90
2022-10-17T21:56:35.666Z,99.90
2022-10-17T21:59:04.054Z,99.90
2022-10-17T22:01:34.914Z,99.90
2022-10-17T22:04:04.562Z,99.90
2022-10-17T22:06:39.739Z,99.90
2022-10-17T22:09:13.402Z,99.90
2022-10-17T22:11:40.934Z,99.90
2022-10-17T22:14:18.490Z,99.90
2022-10-17T22:16:47.183Z,99.90
2022-10-17T22:19:17.606Z,99.90
2022-10-17T22:21:45.398Z,99.90
2022-10-17T22:24:14.909Z,99.90
2022-10-17T22:26:43.453Z,99.90
2022-10-17T22:29:11.359Z,99.90
2022-10-17T22:31:39.583Z,99.90
2022-10-17T22:34:07.992Z,99.90
2022-10-17T22:36:35.852Z,99.90
2022-10-17T22:39:03.994Z,99.90
2022-10-17T22:41:31.437Z,99.90
2022-10-17T22:43:58.982Z,99.90
2022-10-17T22:46:26.364Z,99.90
2022-10-17T22:48:53.871Z,99.90
2022-10-17T22:51:21.189Z,99.90
2022-10-17T22:53:48.721Z,99.90
2022-10-17T22:56:18.775Z,99.90
2022-10-17T22:58:46.527Z,99.90
2022-10-17T23:01:17.278Z,99.90
2022-10-17T23:03:45.062Z,99.90
2022-10-17T23:06:14.505Z,99.90
2022-10-17T23:08:43.497Z,99.90
2022-10-17T23:11:13.255Z,99.90
2022-10-17T23:13:40.826Z,99.90
2022-10-17T23:16:08.840Z,99.90
2022-10-17T23:18:37.833Z,99.90
2022-10-17T23:21:05.456Z,99.90
2022-10-17T23:23:33.324Z,99.90
2022-10-17T23:26:09.384Z,99.90
2022-10-17T23:28:37.302Z,99.90
2022-10-17T23:31:19.129Z,99.90
2022-10-17T23:33:47.876Z,99.90
2022-10-17T23:36:19.014Z,99.90
2022-10-17T23:38:47.922Z,99.90
2022-10-17T23:41:15.200Z,99.90
2022-10-17T23:43:43.017Z,99.90
2022-10-17T23:46:10.551Z,99.90
2022-10-17T23:48:38.715Z,99.90
2022-10-17T23:51:07.390Z,99.90
2022-10-17T23:53:35.990Z,99.90
2022-10-17T23:56:06.723Z,99.90
2022-10-17T23:58:34.667Z,99.90
